Time;durP1;ratioP1;P1;durP2;ratioP2;P2;SDS_P1;SDS_P2;PMS_P1;PMS_P2;Temp;Humidity;BMP_temperature;BMP_pressure;BME280_temperature;BME280_humidity;BME280_pressure;Samples;Min_cycle;Max_cycle;Signal;HPM_P1;HPM_P2
2023/10/18 00:03:19;;;;;;;9.88;6.13;;;;;;;7.45;94.68;101837.91;10552280;27;20047;-63
2023/10/18 00:08:45;;;;;;;10.57;6.10;;;;;;;7.41;94.11;101846.50;10549017;27;20570;-62
2023/10/18 00:14:07;;;;;;;15.18;5.93;;;;;;;7.35;94.65;101845.63;10540692;27;20366;-62
2023/10/18 00:19:28;;;;;;;10.30;6.35;;;;;;;7.31;94.34;101838.78;10532638;27;20138;-61
2023/10/18 00:24:51;;;;;;;12.70;6.65;;;;;;;7.30;95.01;101844.78;10550580;27;20497;-62
2023/10/18 00:30:13;;;;;;;9.95;6.57;;;;;;;7.28;95.27;101841.34;10552891;27;20455;-61
2023/10/18 00:35:36;;;;;;;10.48;6.25;;;;;;;7.25;94.95;101833.63;10556300;27;20035;-62
2023/10/18 00:40:58;;;;;;;11.98;6.45;;;;;;;7.17;94.71;101825.03;10538025;27;20047;-62
2023/10/18 00:46:20;;;;;;;13.77;6.28;;;;;;;7.10;94.49;101814.75;10544018;27;20044;-62
2023/10/18 00:51:43;;;;;;;9.05;5.82;;;;;;;7.11;95.41;101813.91;10546167;27;20038;-62
2023/10/18 00:57:07;;;;;;;9.75;6.30;;;;;;;7.09;95.40;101812.16;10540660;27;20492;-62
2023/10/18 01:02:28;;;;;;;12.05;5.97;;;;;;;7.04;94.61;101804.47;10545041;27;20827;-62
2023/10/18 01:07:53;;;;;;;8.27;5.65;;;;;;;6.99;94.42;101800.19;10541858;27;20125;-61
2023/10/18 01:13:15;;;;;;;9.10;5.28;;;;;;;6.95;94.53;101798.47;10557593;27;20050;-63
2023/10/18 01:18:37;;;;;;;12.75;5.72;;;;;;;6.87;94.45;101788.16;10546157;27;20065;-62
2023/10/18 01:24:01;;;;;;;8.07;5.53;;;;;;;6.87;95.01;101790.72;10544437;27;20126;-62
2023/10/18 01:29:23;;;;;;;10.90;5.63;;;;;;;6.80;94.49;101778.72;10538032;27;20051;-61
2023/10/18 01:34:45;;;;;;;8.38;5.20;;;;;;;6.77;94.86;101765.88;10546971;27;20063;-62
2023/10/18 01:46:08;;;;;;;11.90;5.50;;;;;;;6.79;95.21;101751.28;10501619;27;20062;-62
2023/10/18 01:51:30;;;;;;;10.68;5.38;;;;;;;6.74;94.78;101747.84;10543894;27;20051;-63
2023/10/18 01:56:57;;;;;;;8.07;5.28;;;;;;;6.70;94.67;101740.16;10539619;28;20389;-62
2023/10/18 02:02:19;;;;;;;7.72;5.45;;;;;;;6.63;94.87;101734.13;10541129;28;20060;-61
2023/10/18 02:07:42;;;;;;;8.77;5.18;;;;;;;6.65;95.14;101729.00;10541055;28;20051;-61
2023/10/18 02:13:05;;;;;;;7.40;4.57;;;;;;;6.60;93.64;101718.72;10537871;28;20048;-61
2023/10/18 02:18:27;;;;;;;9.80;4.50;;;;;;;6.56;94.58;101721.28;10540248;28;20055;-61
2023/10/18 02:23:51;;;;;;;8.18;4.65;;;;;;;6.50;93.57;101716.97;10537335;28;20148;-62
2023/10/18 02:29:12;;;;;;;6.88;4.63;;;;;;;6.47;94.40;101706.72;10547113;28;20477;-62
2023/10/18 02:34:34;;;;;;;8.25;4.53;;;;;;;6.45;94.55;101711.00;10552477;28;20404;-62
2023/10/18 02:40:07;;;;;;;8.50;4.68;;;;;;;6.46;95.45;101712.72;10544874;27;20104;-61
2023/10/18 02:45:30;;;;;;;8.68;4.57;;;;;;;6.49;94.86;101714.41;10548315;27;20048;-62
2023/10/18 02:50:57;;;;;;;10.65;5.05;;;;;;;6.43;94.86;101715.25;10557993;27;20403;-62
2023/10/18 02:56:55;;;;;;;7.60;5.00;;;;;;;6.40;94.01;101725.56;10550207;27;20058;-61
2023/10/18 03:02:14;;;;;;;7.30;4.82;;;;;;;6.33;93.59;101718.69;10548981;27;20051;-62
2023/10/18 03:07:35;;;;;;;8.63;4.95;;;;;;;6.27;93.53;101728.97;10557900;27;20430;-62
2023/10/18 03:12:58;;;;;;;8.77;4.57;;;;;;;6.24;95.37;101720.38;10546210;27;20125;-61
2023/10/18 03:18:25;;;;;;;8.32;4.75;;;;;;;6.17;94.61;101709.25;10540856;27;20094;-62
2023/10/18 03:23:53;;;;;;;11.60;4.70;;;;;;;6.17;95.17;101706.69;10544713;27;20055;-61
2023/10/18 03:29:15;;;;;;;8.27;5.30;;;;;;;6.15;94.54;101716.09;10541219;27;20048;-62
2023/10/18 03:34:41;;;;;;;7.60;5.00;;;;;;;6.18;95.81;101713.53;10539993;27;20131;-62
2023/10/18 03:40:08;;;;;;;;;;;;;;;6.20;96.42;101693.81;10546575;27;20121;-61
2023/10/18 03:46:07;;;;;;;7.45;4.88;;;;;;;6.20;95.51;101678.41;10534409;27;19920;-62
2023/10/18 03:51:18;;;;;;;10.48;5.47;;;;;;;6.16;95.54;101663.84;10557136;27;20075;-61
2023/10/18 03:56:47;;;;;;;10.15;5.78;;;;;;;6.13;95.74;101663.84;10547743;27;20055;-61
2023/10/18 04:02:15;;;;;;;15.75;5.82;;;;;;;6.11;95.66;101655.28;10557269;27;20052;-62
2023/10/18 04:07:38;;;;;;;14.23;6.05;;;;;;;6.09;96.08;101654.41;10544821;27;20076;-62
2023/10/18 04:13:00;;;;;;;11.38;6.25;;;;;;;6.10;96.83;101653.53;10560392;27;20082;-62
2023/10/18 04:18:29;;;;;;;12.02;5.82;;;;;;;6.13;96.45;101647.56;10553151;27;20048;-61
2023/10/18 04:23:56;;;;;;;13.52;6.63;;;;;;;6.07;96.23;101640.72;10552852;27;20047;-62
2023/10/18 04:29:32;;;;;;;11.57;6.75;;;;;;;6.07;97.15;101631.31;10548548;27;20051;-62
2023/10/18 04:34:56;;;;;;;;;;;;;;;6.08;97.18;101616.72;10547326;27;20058;-62
2023/10/18 04:40:25;;;;;;;24.50;7.38;;;;;;;6.10;96.37;101602.16;10541394;27;20344;-61
2023/10/18 04:45:54;;;;;;;14.10;6.85;;;;;;;6.09;96.32;101595.34;10547438;27;20126;-61
2023/10/18 04:51:28;;;;;;;12.68;7.45;;;;;;;6.09;96.77;101590.19;10551846;27;20050;-62
2023/10/18 04:56:56;;;;;;;12.63;7.18;;;;;;;6.03;95.50;101579.91;10550155;27;20047;-61
2023/10/18 05:02:23;;;;;;;13.90;7.40;;;;;;;5.95;96.43;101574.75;10547309;27;20040;-61
2023/10/18 05:07:53;;;;;;;17.95;7.47;;;;;;;5.95;96.22;101568.78;10547076;27;20038;-62
2023/10/18 05:13:33;;;;;;;12.93;7.90;;;;;;;5.95;97.62;101566.22;10543316;27;20039;-62
2023/10/18 05:18:55;;;;;;;12.35;7.60;;;;;;;5.92;97.09;101567.06;10556590;27;20071;-61
2023/10/18 05:24:21;;;;;;;10.50;7.22;;;;;;;5.95;97.07;101567.06;10545150;27;20584;-61
2023/10/18 05:29:51;;;;;;;17.00;8.05;;;;;;;5.97;96.90;101572.19;10545946;27;20035;-62
2023/10/18 05:35:28;;;;;;;13.52;7.85;;;;;;;5.98;97.69;101556.81;10539761;27;20054;-61
2023/10/18 05:40:56;;;;;;;12.18;7.90;;;;;;;5.97;96.09;101561.91;10547893;27;20487;-61
2023/10/18 05:46:20;;;;;;;12.68;7.68;;;;;;;5.95;96.47;101561.91;10543285;27;20685;-62
2023/10/18 05:51:52;;;;;;;13.55;7.90;;;;;;;5.96;96.72;101542.25;10545411;27;20201;-62
2023/10/18 05:57:19;;;;;;;17.13;7.65;;;;;;;5.96;96.96;101534.53;10553123;28;20805;-62
2023/10/18 06:02:42;;;;;;;16.52;7.78;;;;;;;5.96;97.19;101542.25;10545600;28;20048;-62
2023/10/18 06:08:07;;;;;;;12.93;7.45;;;;;;;5.96;97.50;101537.09;10546401;28;20051;-61
2023/10/18 06:13:29;;;;;;;16.45;8.23;;;;;;;5.94;96.90;101531.09;10545701;27;20078;-61
2023/10/18 06:18:50;;;;;;;14.05;7.40;;;;;;;5.90;94.96;101534.53;10550555;27;20063;-62
2023/10/18 06:24:12;;;;;;;13.18;7.68;;;;;;;5.88;96.17;101520.81;10551825;27;20396;-61
2023/10/18 06:29:36;;;;;;;13.73;7.43;;;;;;;5.75;95.56;101521.66;10536063;27;20078;-61
2023/10/18 06:35:09;;;;;;;11.63;7.45;;;;;;;5.76;96.19;101528.50;10552502;27;20075;-62
2023/10/18 06:46:27;;;;;;;;;;;;;;;5.78;96.90;101522.53;10550173;27;20066;-62
2023/10/18 06:51:50;;;;;;;13.15;7.75;;;;;;;5.86;97.47;101522.56;10555426;27;19925;-61
2023/10/18 06:57:27;;;;;;;12.95;7.22;;;;;;;5.92;97.11;101507.13;10563192;27;20070;-62
2023/10/18 07:02:50;;;;;;;11.85;7.43;;;;;;;5.98;97.79;101509.72;10549265;27;20134;-61
2023/10/18 07:08:19;;;;;;;13.10;8.30;;;;;;;6.02;97.65;101511.44;10548256;27;20551;-62
2023/10/18 07:13:43;;;;;;;12.95;8.25;;;;;;;6.05;97.65;101511.41;10543560;27;20133;-61
2023/10/18 07:24:47;;;;;;;13.90;8.27;;;;;;;6.20;97.63;101495.13;10541955;27;20514;-61
2023/10/18 07:30:14;;;;;;;14.95;8.73;;;;;;;6.25;96.75;101493.41;10533198;27;20496;-62
2023/10/18 07:35:44;;;;;;;14.95;8.98;;;;;;;6.33;97.42;101484.84;10556033;27;20136;-61
2023/10/18 07:41:08;;;;;;;12.02;8.23;;;;;;;6.47;97.56;101479.63;10544171;27;20124;-61
2023/10/18 07:46:30;;;;;;;14.30;8.63;;;;;;;6.54;96.91;101474.47;10547160;27;20135;-61
2023/10/18 07:51:59;;;;;;;21.40;8.50;;;;;;;6.64;96.47;101478.75;10543450;27;20143;-62
2023/10/18 07:57:33;;;;;;;14.77;8.95;;;;;;;6.77;98.25;101477.84;10533771;27;20051;-62
2023/10/18 08:02:56;;;;;;;22.13;9.43;;;;;;;6.85;97.91;101458.06;10547970;27;20061;-61
2023/10/18 08:08:18;;;;;;;17.98;8.75;;;;;;;6.95;97.52;101449.47;10547887;27;20074;-62
2023/10/18 08:13:46;;;;;;;14.25;9.52;;;;;;;7.07;97.73;101449.38;10554085;27;20487;-62
2023/10/18 08:19:08;;;;;;;13.90;9.25;;;;;;;7.17;97.51;101450.19;10551482;27;20040;-61
2023/10/18 08:24:34;;;;;;;17.55;9.63;;;;;;;7.30;97.20;101440.66;10537207;27;20046;-62
2023/10/18 08:30:05;;;;;;;14.18;10.02;;;;;;;7.41;97.06;101442.31;10537937;27;20416;-62
2023/10/18 08:35:27;;;;;;;13.60;9.63;;;;;;;7.52;97.57;101437.94;10563991;27;20507;-62
2023/10/18 08:40:56;;;;;;;14.57;9.45;;;;;;;7.64;96.78;101426.66;10557448;27;20146;-62
2023/10/18 08:46:24;;;;;;;16.30;10.70;;;;;;;7.76;97.71;101427.41;10544139;27;20040;-62
2023/10/18 08:51:47;;;;;;;17.65;10.07;;;;;;;7.90;97.44;101424.69;10552381;27;20696;-62
2023/10/18 08:57:09;;;;;;;15.88;10.60;;;;;;;8.02;96.91;101416.88;10543567;27;20408;-62
2023/10/18 09:02:39;;;;;;;15.43;9.98;;;;;;;8.16;94.75;101412.41;10544198;27;20047;-62
2023/10/18 09:08:05;;;;;;;15.27;10.00;;;;;;;8.30;94.96;101404.53;10550434;27;20481;-62
2023/10/18 09:18:48;;;;;;;16.33;9.57;;;;;;;8.50;92.83;101390.53;10547293;27;20047;-62
2023/10/18 09:24:11;;;;;;;17.15;9.82;;;;;;;8.63;91.79;101381.78;10546982;27;20048;-61
2023/10/18 09:29:34;;;;;;;19.52;9.75;;;;;;;8.76;91.11;101374.72;10545214;28;20050;-62
2023/10/18 09:34:56;;;;;;;14.68;9.70;;;;;;;8.83;90.77;101374.63;10545169;27;20040;-61
2023/10/18 09:40:18;;;;;;;14.13;9.35;;;;;;;8.96;90.16;101360.66;10541239;27;20044;-62
2023/10/18 09:45:40;;;;;;;14.35;9.65;;;;;;;9.02;90.00;101358.00;10550570;27;20052;-61
2023/10/18 09:51:08;;;;;;;12.40;9.15;;;;;;;9.12;89.23;101349.22;10542317;27;20407;-61
2023/10/18 09:56:33;;;;;;;13.48;9.27;;;;;;;9.22;88.90;101347.34;10541332;28;20358;-61
2023/10/18 10:02:00;;;;;;;13.67;9.13;;;;;;;9.32;86.82;101350.66;10545908;28;20468;-61
2023/10/18 10:07:41;;;;;;;17.17;9.63;;;;;;;9.42;87.29;101322.06;10539559;28;20101;-61
2023/10/18 10:13:08;;;;;;;16.23;9.20;;;;;;;9.49;85.25;101322.78;10538722;28;20044;-61
2023/10/18 10:18:34;;;;;;;12.68;8.55;;;;;;;9.63;85.09;101326.00;10538569;28;20047;-61
2023/10/18 10:23:58;;;;;;;12.88;8.30;;;;;;;9.71;85.89;101301.72;10534930;28;20128;-61
2023/10/18 10:35:15;;;;;;;9.27;7.55;;;;;;;9.95;81.09;101285.72;10540221;28;20043;-61
2023/10/18 10:40:43;;;;;;;11.32;7.85;;;;;;;10.00;83.66;101259.75;10560216;28;20123;-61
2023/10/18 10:46:35;;;;;;;14.45;7.85;;;;;;;10.05;83.62;101257.97;10538327;28;20048;-62
2023/10/18 10:52:04;;;;;;;10.55;7.75;;;;;;;10.20;83.15;101252.47;10532881;28;20057;-62
2023/10/18 10:57:27;;;;;;;14.40;7.70;;;;;;;10.26;83.20;101247.19;10537106;28;20081;-61
2023/10/18 11:02:54;;;;;;;10.55;7.63;;;;;;;10.41;81.68;101230.47;10551266;27;20102;-61
2023/10/18 11:08:16;;;;;;;11.40;7.80;;;;;;;10.45;82.98;101209.66;10536026;27;20139;-61
2023/10/18 11:13:41;;;;;;;11.95;7.22;;;;;;;10.51;80.72;101217.25;10544844;27;20050;-64
2023/10/18 11:19:03;;;;;;;11.17;7.60;;;;;;;10.52;81.29;101197.44;10546602;27;20052;-61
2023/10/18 11:24:27;;;;;;;13.88;7.55;;;;;;;10.59;78.93;101196.38;10546181;27;20051;-61
2023/10/18 11:29:55;;;;;;;10.73;7.10;;;;;;;10.69;79.62;101179.75;10533125;27;20040;-61
2023/10/18 11:35:25;;;;;;;12.07;6.80;;;;;;;10.72;79.68;101175.34;10551278;27;20050;-61
2023/10/18 11:40:51;;;;;;;13.82;6.95;;;;;;;10.77;79.20;101157.09;10555580;27;20051;-61
2023/10/18 11:46:14;;;;;;;9.27;6.47;;;;;;;10.78;80.04;101144.16;10550251;27;20039;-62
2023/10/18 11:51:44;;;;;;;12.18;6.93;;;;;;;10.88;78.47;101140.41;10545094;27;20044;-61
2023/10/18 11:57:30;;;;;;;10.25;6.60;;;;;;;10.93;79.21;101114.41;10531536;27;20036;-61
2023/10/18 12:02:55;;;;;;;16.08;6.82;;;;;;;11.01;79.98;101108.13;10551051;27;20116;-61
2023/10/18 12:08:17;;;;;;;11.07;5.77;;;;;;;11.08;79.90;101099.31;10545357;27;20075;-61
2023/10/18 12:13:39;;;;;;;11.98;6.45;;;;;;;11.10;79.03;101089.75;10549806;27;20454;-62
2023/10/18 12:19:01;;;;;;;11.05;6.00;;;;;;;11.21;79.01;101080.84;10544069;27;20039;-61
2023/10/18 12:24:24;;;;;;;10.35;6.60;;;;;;;11.24;78.13;101065.19;10543628;27;20055;-61
2023/10/18 12:29:45;;;;;;;11.38;6.30;;;;;;;11.36;78.93;101067.44;10544570;27;20054;-61
2023/10/18 12:35:13;;;;;;;9.02;6.25;;;;;;;11.37;77.71;101054.44;10541169;27;20135;-61
2023/10/18 12:40:41;;;;;;;10.43;5.80;;;;;;;11.42;78.58;101049.13;10543941;27;20044;-61
2023/10/18 12:46:03;;;;;;;10.30;6.28;;;;;;;11.43;78.05;101045.63;10543938;27;20433;-61
2023/10/18 12:51:31;;;;;;;10.80;5.97;;;;;;;11.47;78.11;101037.72;10546183;27;20051;-62
2023/10/18 12:57:08;;;;;;;10.82;5.70;;;;;;;11.51;77.37;101016.00;10540007;27;20047;-61
2023/10/18 13:08:22;;;;;;;10.63;5.60;;;;;;;11.57;75.99;100986.47;10553792;27;20040;-61
2023/10/18 13:13:45;;;;;;;9.32;5.25;;;;;;;11.62;76.98;100976.78;10550305;27;20040;-61
2023/10/18 13:19:07;;;;;;;7.43;5.63;;;;;;;11.63;76.10;100960.34;10563719;27;20035;-61
2023/10/18 13:24:28;;;;;;;7.90;5.32;;;;;;;11.68;75.92;100953.31;10546296;27;20040;-61
2023/10/18 13:30:00;;;;;;;7.90;5.22;;;;;;;11.68;76.83;100932.56;10535916;27;20535;-62
2023/10/18 13:35:23;;;;;;;8.50;5.43;;;;;;;11.70;75.23;100923.00;10545138;27;20059;-62
2023/10/18 13:40:46;;;;;;;9.07;5.32;;;;;;;11.69;77.46;100903.13;10543412;27;20077;-61
2023/10/18 13:46:20;;;;;;;10.85;5.28;;;;;;;11.68;77.54;100891.91;10539058;27;20055;-62
2023/10/18 13:51:42;;;;;;;9.60;5.07;;;;;;;11.71;77.04;100884.06;10544993;27;20056;-61
2023/10/18 13:57:05;;;;;;;6.40;5.15;;;;;;;11.69;78.56;100879.81;10542220;27;20052;-61
2023/10/18 14:02:27;;;;;;;8.23;5.28;;;;;;;11.69;78.65;100866.84;10544020;28;20040;-61
2023/10/18 14:07:49;;;;;;;10.43;5.80;;;;;;;11.69;77.54;100854.75;10552167;28;20036;-62
2023/10/18 14:13:12;;;;;;;7.05;5.20;;;;;;;11.68;78.38;100860.00;10550336;28;20084;-61
2023/10/18 14:18:33;;;;;;;5.80;4.88;;;;;;;11.69;76.27;100840.94;10550452;28;20057;-61
2023/10/18 14:23:59;;;;;;;10.15;4.95;;;;;;;11.68;76.41;100840.06;10540734;28;20129;-62
2023/10/18 14:29:25;;;;;;;10.55;5.25;;;;;;;11.62;78.75;100829.06;10550779;28;20067;-62
2023/10/18 14:34:49;;;;;;;8.75;5.30;;;;;;;11.62;77.12;100823.88;10542973;27;20058;-62
2023/10/18 14:40:12;;;;;;;9.82;5.60;;;;;;;11.62;75.64;100818.69;10567478;27;20104;-62
2023/10/18 14:45:34;;;;;;;10.32;5.15;;;;;;;11.57;76.29;100805.03;10550792;27;20150;-62
2023/10/18 14:50:56;;;;;;;6.97;4.93;;;;;;;11.54;76.38;100793.03;10542295;27;20657;-62
2023/10/18 14:56:19;;;;;;;9.45;5.45;;;;;;;11.52;77.71;100781.03;10551577;27;20138;-62
2023/10/18 15:01:41;;;;;;;10.07;5.38;;;;;;;11.46;78.03;100781.25;10554570;27;20072;-63
2023/10/18 15:07:03;;;;;;;11.02;5.40;;;;;;;11.41;77.79;100772.78;10553788;27;20048;-62
2023/10/18 15:12:25;;;;;;;9.45;5.30;;;;;;;11.36;78.47;100785.88;10545487;27;20036;-62
2023/10/18 15:17:46;;;;;;;8.52;5.10;;;;;;;11.33;77.61;100767.00;10548632;27;20639;-62
2023/10/18 15:23:08;;;;;;;6.53;5.03;;;;;;;11.29;76.65;100758.50;10550814;27;20492;-62
2023/10/18 15:28:31;;;;;;;7.78;5.30;;;;;;;11.29;78.02;100752.47;10548970;27;20059;-62
2023/10/18 15:33:53;;;;;;;7.05;5.03;;;;;;;11.22;76.74;100748.41;10543670;27;20042;-62
2023/10/18 15:39:18;;;;;;;9.85;5.38;;;;;;;11.15;78.00;100740.00;10557011;27;20054;-62
2023/10/18 15:44:40;;;;;;;13.23;5.27;;;;;;;11.15;77.80;100740.81;10541060;27;20103;-62
2023/10/18 15:50:06;;;;;;;6.95;5.10;;;;;;;11.11;78.45;100723.69;10550489;27;20071;-62
2023/10/18 15:55:28;;;;;;;7.13;5.28;;;;;;;11.06;79.08;100709.25;10549368;27;20148;-63
2023/10/18 16:00:49;;;;;;;12.35;5.72;;;;;;;10.97;78.52;100700.03;10547933;27;20044;-63
2023/10/18 16:06:14;;;;;;;7.78;4.97;;;;;;;10.95;78.30;100696.63;10545788;27;20044;-62
2023/10/18 16:11:36;;;;;;;8.20;5.30;;;;;;;10.89;79.29;100691.69;10531149;27;20047;-62
2023/10/18 16:17:00;;;;;;;10.85;5.53;;;;;;;10.82;79.79;100684.19;10539559;27;20040;-62
2023/10/18 16:22:22;;;;;;;7.85;5.57;;;;;;;10.78;80.51;100665.31;10552410;27;20089;-62
2023/10/18 16:27:44;;;;;;;9.48;5.28;;;;;;;10.77;79.92;100662.75;10542124;27;20066;-63
2023/10/18 16:33:06;;;;;;;10.68;5.35;;;;;;;10.74;80.56;100655.97;10552059;27;20044;-62
2023/10/18 16:38:29;;;;;;;8.75;5.65;;;;;;;10.71;80.35;100661.22;10555214;27;20373;-62
2023/10/18 16:43:52;;;;;;;7.22;5.68;;;;;;;10.64;80.25;100659.72;10548387;27;20051;-62
2023/10/18 16:49:15;;;;;;;9.13;5.70;;;;;;;10.59;80.49;100656.47;10544896;27;20044;-62
2023/10/18 16:54:37;;;;;;;10.77;6.10;;;;;;;10.57;80.04;100657.38;10546840;27;20043;-62
2023/10/18 16:59:58;;;;;;;11.55;5.32;;;;;;;10.53;80.79;100654.06;10549467;27;20169;-62
2023/10/18 17:05:21;;;;;;;9.27;5.30;;;;;;;10.51;80.95;100637.75;10544913;27;20050;-62
2023/10/18 17:10:44;;;;;;;8.15;5.53;;;;;;;10.49;80.94;100634.38;10551025;27;20035;-62
2023/10/18 17:16:08;;;;;;;8.43;5.30;;;;;;;10.47;81.31;100619.81;10533369;27;20395;-62
2023/10/18 17:21:31;;;;;;;7.10;5.68;;;;;;;10.43;80.64;100598.38;10549854;27;20120;-62
2023/10/18 17:26:52;;;;;;;9.50;5.55;;;;;;;10.41;80.35;100588.94;10545351;27;20054;-62
2023/10/18 17:32:14;;;;;;;8.18;6.18;;;;;;;10.39;80.21;100590.75;10547388;27;20043;-62
2023/10/18 17:37:36;;;;;;;10.13;6.65;;;;;;;10.41;79.31;100594.97;10554788;27;20047;-62
2023/10/18 17:42:57;;;;;;;9.27;6.55;;;;;;;10.32;80.93;100587.53;10542400;27;20062;-62
2023/10/18 17:48:19;;;;;;;10.13;6.47;;;;;;;10.32;79.88;100569.41;10545764;27;20046;-62
2023/10/18 17:53:41;;;;;;;10.85;5.95;;;;;;;10.30;80.10;100573.78;10540202;27;20055;-62
2023/10/18 17:59:09;;;;;;;9.35;6.18;;;;;;;10.28;79.37;100557.47;10551682;28;20044;-62
2023/10/18 18:04:33;;;;;;;7.07;5.38;;;;;;;10.28;79.91;100552.31;10551018;28;20052;-61
2023/10/18 18:09:55;;;;;;;8.00;5.85;;;;;;;10.28;79.25;100549.72;10555462;27;20126;-62
2023/10/18 18:15:17;;;;;;;9.93;6.10;;;;;;;10.24;79.09;100544.72;10564308;27;20047;-62
2023/10/18 18:20:40;;;;;;;11.55;5.95;;;;;;;10.23;79.49;100515.44;10544630;27;20508;-62
2023/10/18 18:26:07;;;;;;;10.73;6.07;;;;;;;10.23;78.62;100524.91;10545685;27;20044;-62
2023/10/18 18:31:28;;;;;;;10.07;5.88;;;;;;;10.19;79.17;100506.06;10556075;27;20127;-62
2023/10/18 18:36:50;;;;;;;10.45;5.63;;;;;;;10.16;78.54;100498.44;10555440;27;20134;-62
2023/10/18 18:42:12;;;;;;;9.30;5.38;;;;;;;10.18;78.99;100478.53;10544225;27;20136;-62
2023/10/18 18:47:44;;;;;;;6.93;5.22;;;;;;;10.17;79.85;100461.31;10551090;27;20062;-62
2023/10/18 18:53:05;;;;;;;8.13;5.60;;;;;;;10.20;79.35;100460.41;10554262;27;20472;-62
2023/10/18 18:58:31;;;;;;;8.80;5.93;;;;;;;10.20;79.13;100473.31;10550273;27;20132;-62
2023/10/18 19:03:53;;;;;;;10.82;5.80;;;;;;;10.15;79.62;100457.94;10552649;27;20039;-63
2023/10/18 19:09:14;;;;;;;7.90;5.65;;;;;;;10.14;80.10;100441.59;10550243;27;20036;-62
2023/10/18 19:14:36;;;;;;;12.00;5.70;;;;;;;10.16;79.61;100435.53;10552217;27;20422;-62
2023/10/18 19:19:58;;;;;;;8.65;5.65;;;;;;;10.16;80.06;100418.28;10546332;27;20063;-61
2023/10/18 19:25:20;;;;;;;8.25;6.07;;;;;;;10.13;79.73;100420.97;10549972;27;20064;-62
2023/10/18 19:30:42;;;;;;;8.98;5.80;;;;;;;10.13;79.60;100405.44;10553886;27;20100;-62
2023/10/18 19:36:04;;;;;;;8.50;5.28;;;;;;;10.16;79.90;100396.75;10547596;27;20051;-62
2023/10/18 19:41:25;;;;;;;11.13;5.88;;;;;;;10.13;79.57;100379.59;10550718;27;20063;-62
2023/10/18 19:46:49;;;;;;;9.15;6.15;;;;;;;10.13;80.66;100377.00;10551975;27;20083;-62
2023/10/18 19:52:10;;;;;;;10.52;5.85;;;;;;;10.11;80.30;100368.47;10555969;27;20071;-62
2023/10/18 19:57:33;;;;;;;7.88;5.75;;;;;;;10.11;79.82;100350.38;10551392;27;20074;-62
2023/10/18 20:02:55;;;;;;;9.55;5.80;;;;;;;10.10;80.23;100341.78;10546439;27;20100;-62
2023/10/18 20:08:17;;;;;;;8.18;5.70;;;;;;;10.05;80.14;100311.81;10555741;27;20040;-62
2023/10/18 20:13:39;;;;;;;9.13;5.60;;;;;;;10.05;80.05;100317.78;10549946;27;20047;-62
2023/10/18 20:19:01;;;;;;;14.00;6.38;;;;;;;10.04;80.33;100294.59;10545596;27;20634;-62
2023/10/18 20:24:23;;;;;;;8.57;5.70;;;;;;;10.04;80.46;100294.59;10539237;27;20051;-62
2023/10/18 20:29:44;;;;;;;9.23;6.05;;;;;;;10.04;80.34;100289.41;10536079;27;20052;-62
2023/10/18 20:35:07;;;;;;;8.45;5.70;;;;;;;10.04;80.89;100273.91;10543931;27;20054;-62
2023/10/18 20:40:29;;;;;;;7.78;5.72;;;;;;;10.05;80.51;100273.03;10545070;27;20043;-62
2023/10/18 20:45:58;;;;;;;8.68;5.72;;;;;;;10.00;80.62;100262.84;10550176;27;20044;-62
2023/10/18 20:51:21;;;;;;;7.65;6.15;;;;;;;9.99;80.01;100247.41;10530615;27;20063;-62
2023/10/18 20:56:43;;;;;;;9.45;6.75;;;;;;;10.00;80.99;100237.00;10531960;27;20077;-62
2023/10/18 21:02:17;;;;;;;12.68;6.32;;;;;;;9.97;81.06;100218.19;10551752;27;20046;-62
2023/10/18 21:07:41;;;;;;;11.75;6.38;;;;;;;9.97;80.79;100231.97;10537788;27;20040;-62
2023/10/18 21:13:05;;;;;;;15.85;6.47;;;;;;;9.99;80.79;100224.13;10541693;27;20728;-62
2023/10/18 21:18:27;;;;;;;8.48;6.75;;;;;;;10.01;81.20;100209.41;10522747;27;20089;-62
2023/10/18 21:23:49;;;;;;;7.60;5.97;;;;;;;10.02;81.04;100193.00;10543373;27;20126;-62
2023/10/18 21:29:12;;;;;;;8.75;6.28;;;;;;;10.01;80.20;100183.56;10543097;27;20040;-62
2023/10/18 21:34:35;;;;;;;13.43;6.63;;;;;;;10.07;81.15;100175.59;10537648;27;20044;-62
2023/10/18 21:39:57;;;;;;;15.35;5.63;;;;;;;10.08;80.57;100164.34;10540829;27;20153;-62
2023/10/18 21:45:18;;;;;;;10.85;6.22;;;;;;;10.11;81.09;100157.34;10532480;28;20134;-63
2023/10/18 21:50:40;;;;;;;10.57;6.13;;;;;;;10.10;80.57;100139.31;10519820;28;20468;-62
2023/10/18 21:56:02;;;;;;;9.80;6.13;;;;;;;10.12;80.34;100122.00;10539419;28;20487;-62
2023/10/18 22:01:26;;;;;;;12.48;5.88;;;;;;;10.14;80.67;100121.03;10544853;27;20178;-62
2023/10/18 22:06:49;;;;;;;7.00;5.90;;;;;;;10.14;80.48;100100.34;10542669;28;20078;-62
2023/10/18 22:12:11;;;;;;;11.50;6.20;;;;;;;10.15;80.78;100090.84;10556346;28;20519;-62
2023/10/18 22:17:36;;;;;;;10.20;6.30;;;;;;;10.16;80.94;100084.78;10531028;28;20131;-62
2023/10/18 22:23:01;;;;;;;8.87;5.90;;;;;;;10.17;80.30;100063.19;10544067;28;20054;-62
2023/10/18 22:28:22;;;;;;;10.32;6.30;;;;;;;10.23;80.52;100057.78;10550287;28;20032;-62
2023/10/18 22:33:44;;;;;;;9.73;6.20;;;;;;;10.22;80.92;100056.09;10540786;28;20540;-62
2023/10/18 22:39:13;;;;;;;11.55;6.20;;;;;;;10.24;81.21;100041.34;10539067;28;20803;-62
2023/10/18 22:44:38;;;;;;;10.98;6.72;;;;;;;10.23;80.52;100031.94;10547338;28;20174;-62
2023/10/18 22:49:59;;;;;;;11.73;6.53;;;;;;;10.24;80.12;100031.00;10543512;28;20442;-62
2023/10/18 22:55:22;;;;;;;9.55;6.50;;;;;;;10.26;81.29;100023.19;10557574;27;20044;-62
2023/10/18 23:00:48;;;;;;;11.38;6.38;;;;;;;10.28;80.51;100024.81;10555115;27;20051;-62
2023/10/18 23:06:10;;;;;;;11.18;6.40;;;;;;;10.32;81.12;100010.84;10552954;27;20051;-62
2023/10/18 23:11:33;;;;;;;9.85;6.38;;;;;;;10.30;81.32;100007.50;10548716;27;20046;-62
2023/10/18 23:22:34;;;;;;;14.60;7.90;;;;;;;10.20;85.98;100001.00;10549493;27;20527;-62
2023/10/18 23:28:14;;;;;;;11.25;8.18;;;;;;;10.11;87.08;99991.06;10541393;27;20128;-62
2023/10/18 23:33:49;;;;;;;10.32;7.72;;;;;;;10.01;88.87;99982.84;10552556;27;20040;-62
2023/10/18 23:39:11;;;;;;;17.97;8.40;;;;;;;9.87;91.97;99979.13;10545703;27;20054;-63
2023/10/18 23:44:34;;;;;;;16.98;8.57;;;;;;;9.75;93.61;99964.97;10544033;27;20047;-62
2023/10/18 23:55:51;;;;;;;;;;;;;;;9.57;97.11;99936.44;10527528;27;20048;-62
